Latest Weather Observations for Terrey Hills

IDN60901

Issued at 6:02 pm EDT Monday 22 December 2014 (issued every 10 minutes, with the page automatically refreshed every 10 minutes)

About weather observations | Map of Sydney area stations | Latest observations for Sydney area | Other Formats
Station Details ID: 066059 Name: TERREY HILLS AWS Lat: -33.69 Lon: 151.23 Height: 199.0 m
Data from the previous 72 hours. | See also: Recent months at Terrey Hills
Date/Time
EDT
Tmp

°C
App
Tmp
°C
Dew
Point
°C
Rel
Hum
%
Delta-T

°C
Wind Press
QNH
hPa
Press
MSL
hPa
Rain
since
9 am
mm
Dir
 
Spd
km/h
Gust
km/h
Spd
kts
Gust
kts
22/06:00pm 22.0 21.6 19.0 83 1.9 ENE 19 35 10 19 - - 0.0
22/05:30pm 22.6 23.5 19.2 81 2.2 NE 13 28 7 15 - - 0.0
22/05:00pm 22.1 23.5 19.5 85 1.7 NNE 11 20 6 11 - - 0.0
22/04:30pm 22.1 21.7 18.9 82 2.0 NE 19 39 10 21 - - 0.0
22/04:00pm 23.1 21.5 19.1 78 2.6 ENE 26 54 14 29 - - 0.0
22/03:42pm 24.1 22.0 19.0 73 3.3 NE 28 50 15 27 - - 0.0
22/03:30pm 24.6 23.8 19.2 72 3.5 NE 22 43 12 23 - - 0.0
22/03:00pm 24.6 24.0 18.8 70 3.7 NE 20 43 11 23 - - 0.0
22/02:30pm 25.5 24.9 18.9 67 4.2 NE 20 44 11 24 - - 0.0
22/02:00pm 25.9 26.2 18.8 65 4.6 NE 15 37 8 20 - - 0.0
22/01:30pm 25.9 25.2 18.3 63 4.9 NE 19 37 10 20 - - 0.0
22/01:00pm 25.9 25.7 19.3 67 4.3 ENE 19 28 10 15 - - 0.0
22/12:30pm 26.5 27.2 19.6 66 4.5 E 15 24 8 13 - - 0.0
22/12:00pm 27.4 29.4 20.0 64 4.9 ENE 9 17 5 9 - - 0.0
22/11:30am 26.3 27.6 18.4 61 5.1 NE 9 19 5 10 - - 0.0
22/11:00am 26.5 28.3 19.6 66 4.5 ENE 9 19 5 10 - - 0.0
22/10:30am 25.4 27.3 18.6 66 4.4 NNE 6 9 3 5 - - 0.0
22/10:00am 23.8 24.4 17.8 69 3.8 N 11 20 6 11 - - 0.0
22/09:30am 23.3 24.6 18.4 74 3.1 NNE 9 17 5 9 - - 0.0
22/09:00am 22.6 24.0 17.7 74 3.1 N 7 13 4 7 - - 0.0
22/08:30am 22.1 23.3 18.3 79 2.4 N 9 17 5 9 - - 0.0
22/08:00am 21.2 22.8 17.8 81 2.1 NNE 6 11 3 6 - - 0.0
22/07:30am 20.4 22.0 18.3 88 1.3 NNE 7 11 4 6 - - 0.0
22/07:00am 19.4 21.0 17.9 91 0.9 N 6 11 3 6 - - 0.0
22/06:30am 18.5 20.0 17.7 95 0.5 N 6 9 3 5 - - 0.0
22/06:00am 18.1 19.5 17.8 98 0.2 NE 7 15 4 8 - - 0.0
22/05:30am 17.7 19.0 17.2 97 0.3 NE 6 13 3 7 - - 0.0
22/05:00am 17.8 19.9 17.3 97 0.3 NE 2 6 1 3 - - 0.0
22/04:30am 17.9 19.1 17.4 97 0.3 ENE 7 13 4 7 - - 0.0
22/04:00am 18.0 19.5 17.5 97 0.3 E 6 9 3 5 - - 0.0
22/03:30am 17.9 19.7 17.3 96 0.4 E 4 6 2 3 - - 0.0
22/03:00am 17.9 20.0 17.1 95 0.5 ENE 2 4 1 2 - - 0.0
22/02:30am 18.5 20.4 17.7 95 0.5 N 4 6 2 3 - - 0.0
22/02:00am 18.4 20.3 17.6 95 0.5 NNE 4 6 2 3 - - 0.0
22/01:30am 18.6 20.5 17.6 94 0.6 NNE 4 6 2 3 - - 0.0
22/01:00am 18.9 20.8 17.7 93 0.7 NNE 4 7 2 4 - - 0.0
22/12:30am 19.1 20.5 17.9 93 0.7 NNE 7 11 4 6 - - 0.0
 
Date/Time
EDT
Tmp

°C
App
Tmp
°C
Dew
Point
°C
Rel
Hum
%
Delta-T

°C
Wind Press
QNH
hPa
Press
MSL
hPa
Rain
since
9 am
mm
Dir
 
Spd
km/h
Gust
km/h
Spd
kts
Gust
kts
21/11:30pm 19.4 20.0 17.7 90 1.1 NE 11 22 6 12 - - 0.0
21/11:00pm 19.7 20.0 17.8 89 1.2 NE 13 26 7 14 - - 0.0
21/10:30pm 19.8 20.1 17.9 89 1.2 NE 13 22 7 12 - - 0.0
21/10:00pm 19.9 20.2 18.0 89 1.2 NE 13 24 7 13 - - 0.0
21/09:30pm 20.0 20.3 18.0 88 1.2 NE 13 30 7 16 - - 0.0
21/09:00pm 20.0 20.0 18.0 88 1.2 NE 15 28 8 15 - - 0.0
21/08:30pm 20.1 20.1 18.1 88 1.2 NE 15 30 8 16 - - 0.0
21/08:00pm 20.3 19.9 18.1 87 1.4 NE 17 35 9 19 - - 0.0
21/07:30pm 20.7 19.8 18.1 85 1.6 NE 20 44 11 24 - - 0.0
21/07:00pm 21.3 20.9 18.1 82 2.0 NE 17 32 9 17 - - 0.0
21/06:30pm 21.8 21.4 18.0 79 2.4 NE 17 39 9 21 - - 0.0
21/05:30pm 22.9 22.4 17.8 73 3.2 NE 17 37 9 20 - - 0.0
21/05:00pm 23.0 22.0 17.5 71 3.4 NE 19 35 10 19 - - 0.0
21/04:30pm 23.2 22.0 17.0 68 3.8 NNE 19 30 10 16 - - 0.0
21/04:00pm 23.5 23.0 17.0 67 4.0 NNE 15 33 8 18 - - 0.0
21/03:30pm 24.4 24.2 17.6 66 4.3 NE 15 24 8 13 - - 0.0
21/03:00pm 23.9 24.0 17.4 67 4.1 NNE 13 24 7 13 - - 0.0
21/02:30pm 24.6 24.6 18.1 67 4.1 NE 15 26 8 14 - - 0.0
21/02:00pm 24.9 24.5 18.1 66 4.3 ENE 17 32 9 17 - - 0.0
21/01:30pm 24.4 25.0 17.6 66 4.3 ENE 11 20 6 11 - - 0.0
21/01:00pm 24.6 24.8 17.6 65 4.4 NE 13 24 7 13 - - 0.0
21/12:30pm 24.9 25.8 17.6 64 4.6 NE 9 17 5 9 - - 0.0
21/12:00pm 23.8 24.3 17.5 68 3.9 ENE 11 19 6 10 - - 0.0
21/11:30am 23.8 23.4 17.1 66 4.2 ENE 15 22 8 12 - - 0.0
21/11:00am 24.1 24.2 17.4 66 4.2 NE 13 22 7 12 - - 0.0
21/10:30am 23.5 23.0 17.0 67 4.0 ENE 15 24 8 13 - - 0.0
21/10:00am 23.3 23.5 16.8 67 4.0 ENE 11 20 6 11 - - 0.0
21/09:30am 22.8 23.3 16.6 68 3.8 NE 9 22 5 12 - - 0.0
21/09:00am 20.6 21.6 16.4 77 2.6 N 6 11 3 6 - - 0.0
21/08:30am 20.3 21.7 16.5 79 2.3 N 4 6 2 3 - - 0.0
21/08:00am 18.7 20.1 15.4 81 2.0 WNW 2 6 1 3 - - 0.0
21/07:30am 17.5 19.1 14.8 84 1.6 CALM 0 0 0 0 - - 0.0
21/07:00am 16.5 18.0 14.7 89 1.0 CALM 0 0 0 0 - - 0.0
21/06:30am 15.6 17.1 14.6 94 0.6 CALM 0 0 0 0 - - 0.0
21/06:00am 14.7 15.6 14.1 96 0.3 NNW 2 4 1 2 - - 0.0
21/05:30am 14.7 15.6 14.1 96 0.3 N 2 4 1 2 - - 0.0
21/05:00am 15.6 17.2 14.8 95 0.5 CALM 0 0 0 0 - - 0.0
21/04:30am 16.0 17.6 15.0 94 0.6 CALM 0 0 0 0 - - 0.0
21/04:00am 16.0 17.8 15.4 96 0.4 CALM 0 0 0 0 - - 0.0
21/03:30am 15.2 16.5 14.1 93 0.6 CALM 0 0 0 0 - - 0.0
21/03:00am 15.0 15.8 13.7 92 0.7 N 2 2 1 1 - - 0.0
21/02:30am 15.2 16.4 13.7 91 0.8 CALM 0 0 0 0 - - 0.0
21/02:00am 15.7 16.9 13.9 89 1.0 CALM 0 0 0 0 - - 0.0
21/01:30am 16.4 17.3 14.1 86 1.3 N 2 2 1 1 - - 0.0
21/01:00am 16.8 17.3 14.1 84 1.6 NNE 4 4 2 2 - - 0.0
21/12:30am 16.9 17.4 14.0 83 1.7 NNE 4 6 2 3 - - 0.0
21/12:00am 16.8 17.8 14.3 85 1.4 NNE 2 4 1 2 - - 0.0
 
Date/Time
EDT
Tmp

°C
App
Tmp
°C
Dew
Point
°C
Rel
Hum
%
Delta-T

°C
Wind Press
QNH
hPa
Press
MSL
hPa
Rain
since
9 am
mm
Dir
 
Spd
km/h
Gust
km/h
Spd
kts
Gust
kts
20/11:30pm 16.8 17.8 14.3 85 1.4 NNE 2 6 1 3 - - 0.0
20/11:00pm 17.0 17.0 13.7 81 1.9 NE 6 11 3 6 - - 0.0
20/10:30pm 17.1 17.1 13.6 80 2.0 NE 6 11 3 6 - - 0.0
20/10:00pm 17.2 16.9 13.3 78 2.2 ENE 7 13 4 7 - - 0.0
20/09:30pm 17.4 17.1 13.3 77 2.3 ENE 7 13 4 7 - - 0.0
20/09:00pm 17.5 16.4 13.2 76 2.4 ENE 11 15 6 8 - - 0.0
20/08:30pm 17.7 16.6 13.0 74 2.7 ENE 11 20 6 11 - - 0.0
20/08:00pm 18.0 16.4 12.9 72 2.9 ENE 13 19 7 10 - - 0.0
20/07:30pm 18.8 18.0 12.8 68 3.4 ENE 9 17 5 9 - - 0.0
20/07:00pm 19.2 17.2 12.7 66 3.7 ENE 15 24 8 13 - - 0.0
20/06:30pm 19.6 17.5 12.4 63 4.1 ENE 15 28 8 15 - - 0.0
20/06:00pm 20.3 18.4 13.0 63 4.2 ENE 15 24 8 13 - - 0.0
20/05:30pm 20.1 17.6 12.3 61 4.4 E 17 26 9 14 - - 0.0
20/05:00pm 20.7 18.3 12.7 60 4.6 ENE 17 26 9 14 - - 0.0
20/04:30pm 20.9 18.9 12.8 60 4.6 ENE 15 26 8 14 - - 0.0
20/04:00pm 21.0 18.8 12.2 57 5.0 ENE 15 24 8 13 - - 0.0
20/03:30pm 20.7 17.7 11.9 57 5.0 E 19 28 10 15 - - 0.0
20/03:00pm 20.6 18.0 12.1 58 4.8 E 17 28 9 15 - - 0.0
20/02:30pm 20.6 18.1 12.3 59 4.7 E 17 24 9 13 - - 0.0
20/02:00pm 21.1 19.0 12.5 58 4.9 E 15 30 8 16 - - 0.0
20/01:30pm 20.6 18.6 11.5 56 5.1 ENE 13 22 7 12 - - 0.0
20/01:00pm 20.0 18.9 11.8 59 4.6 E 9 20 5 11 - - 0.0
20/12:30pm 20.7 19.3 12.1 58 4.9 E 11 20 6 11 - - 0.0
20/12:00pm 20.5 18.6 11.7 57 4.9 E 13 22 7 12 - - 0.0
20/11:30am 19.6 18.7 11.4 59 4.5 E 7 15 4 8 - - 0.0
20/11:00am 19.7 19.0 12.0 61 4.3 ESE 7 15 4 8 - - 0.0
20/10:30am 18.9 17.6 11.2 61 4.2 E 9 15 5 8 - - 0.0
20/10:00am 19.8 18.9 11.3 58 4.7 ENE 7 11 4 6 - - 0.0
20/09:30am 20.1 19.5 11.6 58 4.7 ESE 6 13 3 7 - - 0.0
20/09:00am 19.8 19.3 12.1 61 4.3 ESE 6 9 3 5 - - 0.2
20/08:30am 19.0 18.6 12.5 66 3.7 SE 6 11 3 6 - - 0.2
20/08:00am 17.3 18.0 12.2 72 2.8 CALM 0 4 0 2 - - 0.2
20/07:30am 16.6 16.9 12.2 75 2.4 SE 2 4 1 2 - - 0.2
20/07:00am 16.4 16.9 11.6 73 2.6 CALM 0 0 0 0 - - 0.2
20/06:30am 16.0 16.5 11.6 75 2.4 CALM 0 0 0 0 - - 0.2
20/06:00am 15.7 16.1 11.1 74 2.5 CALM 0 0 0 0 - - 0.2
20/05:30am 15.9 15.9 11.3 74 2.5 SSE 2 6 1 3 - - 0.2
20/05:00am 15.8 16.2 11.4 75 2.4 CALM 0 2 0 1 - - 0.2
20/04:30am 15.7 16.1 11.3 75 2.4 CALM 0 4 0 2 - - 0.2
20/04:00am 15.7 15.3 11.1 74 2.5 SSE 4 7 2 4 - - 0.2
20/03:30am 15.9 15.5 11.1 73 2.6 SSE 4 7 2 4 - - 0.2
20/03:00am 16.3 16.3 11.2 72 2.8 SSE 2 6 1 3 - - 0.2
20/02:30am 16.2 16.3 11.4 73 2.6 SSE 2 6 1 3 - - 0.2
20/02:00am 16.3 15.5 11.2 72 2.8 SE 6 9 3 5 - - 0.2
20/01:30am 16.6 16.3 11.5 72 2.8 SSE 4 9 2 5 - - 0.2
20/01:00am 16.6 16.4 11.7 73 2.7 SE 4 7 2 4 - - 0.2
20/12:30am 16.7 16.0 11.4 71 2.9 SE 6 9 3 5 - - 0.2
20/12:00am 16.9 16.0 11.4 70 3.0 SE 7 13 4 7 - - 0.2
 
Date/Time
EDT
Tmp

°C
App
Tmp
°C
Dew
Point
°C
Rel
Hum
%
Delta-T

°C
Wind Press
QNH
hPa
Press
MSL
hPa
Rain
since
9 am
mm
Dir
 
Spd
km/h
Gust
km/h
Spd
kts
Gust
kts
19/11:30pm 17.0 15.6 10.8 67 3.4 SE 9 15 5 8 - - 0.2
19/11:00pm 16.9 15.6 11.2 69 3.1 ESE 9 17 5 9 - - 0.2
19/10:30pm 17.1 16.2 11.2 68 3.2 SE 7 13 4 7 - - 0.2
19/10:00pm 17.2 15.1 11.2 68 3.3 SE 13 20 7 11 - - 0.2
19/09:30pm 17.2 15.4 10.8 66 3.5 ESE 11 20 6 11 - - 0.2
19/09:00pm 17.2 15.8 10.8 66 3.5 SE 9 19 5 10 - - 0.2
19/08:30pm 17.2 15.9 11.2 68 3.3 SE 9 19 5 10 - - 0.2
19/08:00pm 17.2 15.1 11.2 68 3.3 ESE 13 22 7 12 - - 0.2
19/07:30pm 17.2 15.0 10.8 66 3.5 SE 13 26 7 14 - - 0.2
19/07:00pm 17.3 15.2 11.1 67 3.4 SE 13 22 7 12 - - 0.2
19/06:30pm 17.4 15.1 11.7 69 3.1 ESE 15 22 8 12 - - 0.2

Latest Capital City Observations: Canberra | Sydney | Melbourne | Brisbane | Adelaide | Perth | Hobart | Darwin

Other Formats:

Comma delimited format used in spreadsheet applications
http://www.bom.gov.au/fwo/IDN60901/IDN60901.94759.axf

JavaScript Object Notation format (JSON) in row-major order
http://www.bom.gov.au/fwo/IDN60901/IDN60901.94759.json